Time;durP1;ratioP1;P1;durP2;ratioP2;P2;SDS_P1;SDS_P2;PMS_P1;PMS_P2;Temp;Humidity;BMP_temperature;BMP_pressure;BME280_temperature;BME280_humidity;BME280_pressure;Samples;Min_cycle;Max_cycle;Signal;HPM_P1;HPM_P2
2022/08/15 00:00:59;;;;;;;;;;;22.50;48.90;;;;;;478313;249;1189;-73
2022/08/15 00:03:00;;;;;;;;;;;22.50;48.70;;;;;;484067;246;1141;-73
2022/08/15 00:05:01;;;;;;;;;;;22.50;48.60;;;;;;470248;253;1165;-74
2022/08/15 00:07:04;;;;;;;;;;;22.40;48.70;;;;;;469769;253;1231;-73
2022/08/15 00:09:04;;;;;;;;;;;22.50;48.80;;;;;;478288;249;2142;-73
2022/08/15 00:11:07;;;;;;;;;;;22.50;48.70;;;;;;484065;246;1193;-73
2022/08/15 00:13:08;;;;;;;;;;;22.50;48.60;;;;;;470275;253;1442;-73
2022/08/15 00:15:08;;;;;;;;;;;22.60;48.60;;;;;;469759;254;1423;-73
2022/08/15 00:17:10;;;;;;;;;;;22.50;48.70;;;;;;484093;246;1065;-73
2022/08/15 00:19:11;;;;;;;;;;;22.50;48.70;;;;;;470355;253;1139;-73
2022/08/15 00:21:12;;;;;;;;;;;22.50;48.80;;;;;;469918;253;1083;-73
2022/08/15 00:23:14;;;;;;;;;;;22.40;48.90;;;;;;478383;249;1103;-73
2022/08/15 00:25:15;;;;;;;;;;;22.40;49.00;;;;;;484170;246;1144;-73
2022/08/15 00:27:17;;;;;;;;;;;22.40;49.10;;;;;;470380;253;1212;-73
2022/08/15 00:29:18;;;;;;;;;;;22.30;49.00;;;;;;469734;253;2175;-73
2022/08/15 00:31:20;;;;;;;;;;;22.30;49.20;;;;;;478298;249;1109;-73
2022/08/15 00:33:21;;;;;;;;;;;22.20;49.30;;;;;;484140;246;1605;-73
2022/08/15 00:35:39;;;;;;;;;;;22.30;49.20;;;;;;470292;253;1149;-73
2022/08/15 00:37:39;;;;;;;;;;;22.40;49.10;;;;;;469826;254;1459;-73
2022/08/15 00:39:40;;;;;;;;;;;22.30;49.20;;;;;;478331;249;1082;-73
2022/08/15 00:41:42;;;;;;;;;;;22.30;49.30;;;;;;484142;246;1153;-73
2022/08/15 00:43:43;;;;;;;;;;;22.30;49.30;;;;;;470404;253;1065;-73
2022/08/15 00:45:44;;;;;;;;;;;22.30;49.30;;;;;;469924;253;1089;-73
2022/08/15 00:48:41;;;;;;;;;;;22.30;49.30;;;;;;484136;246;1116;-73
2022/08/15 00:49:48;;;;;;;;;;;22.20;49.40;;;;;;468637;254;2208;-73
2022/08/15 00:51:49;;;;;;;;;;;22.30;49.40;;;;;;469837;253;1136;-73
2022/08/15 00:53:51;;;;;;;;;;;22.30;49.40;;;;;;478140;249;1357;-73
2022/08/15 00:55:52;;;;;;;;;;;22.30;49.30;;;;;;483989;246;1560;-73
2022/08/15 00:57:53;;;;;;;;;;;22.30;49.20;;;;;;470256;250;1192;-73
2022/08/15 00:59:55;;;;;;;;;;;22.30;49.40;;;;;;469830;253;1183;-73
2022/08/15 01:01:56;;;;;;;;;;;22.30;49.30;;;;;;484031;246;1109;-73
2022/08/15 01:03:58;;;;;;;;;;;22.30;49.30;;;;;;470258;253;1157;-73
2022/08/15 01:05:59;;;;;;;;;;;22.40;49.20;;;;;;469714;253;1551;-73
2022/08/15 01:08:00;;;;;;;;;;;22.30;49.20;;;;;;484053;246;1080;-73
2022/08/15 01:10:01;;;;;;;;;;;22.30;49.30;;;;;;470204;253;2124;-73
2022/08/15 01:12:03;;;;;;;;;;;22.20;49.30;;;;;;469878;253;1241;-73
2022/08/15 01:14:06;;;;;;;;;;;22.20;49.40;;;;;;484099;246;1222;-73
2022/08/15 01:16:06;;;;;;;;;;;22.20;49.40;;;;;;470227;253;1315;-73
2022/08/15 01:18:07;;;;;;;;;;;22.20;49.40;;;;;;469894;253;1133;-73
2022/08/15 01:20:09;;;;;;;;;;;22.20;49.40;;;;;;484082;246;1157;-73
2022/08/15 01:22:11;;;;;;;;;;;22.20;49.40;;;;;;470323;253;1211;-73
2022/08/15 01:24:13;;;;;;;;;;;22.30;49.30;;;;;;469812;253;1233;-73
2022/08/15 01:26:13;;;;;;;;;;;22.20;49.20;;;;;;478146;249;1603;-73
2022/08/15 01:28:15;;;;;;;;;;;22.40;49.00;;;;;;484094;246;1154;-73
2022/08/15 01:30:16;;;;;;;;;;;22.30;49.00;;;;;;470231;253;2195;-73
2022/08/15 01:32:17;;;;;;;;;;;22.30;49.00;;;;;;469787;253;1122;-73
2022/08/15 01:34:19;;;;;;;;;;;22.20;48.90;;;;;;478381;249;1105;-73
2022/08/15 01:36:20;;;;;;;;;;;22.20;49.20;;;;;;484041;246;1138;-73
2022/08/15 01:38:21;;;;;;;;;;;22.20;49.20;;;;;;470277;253;1046;-73
2022/08/15 01:40:23;;;;;;;;;;;22.10;49.30;;;;;;469794;253;1103;-73
2022/08/15 01:42:24;;;;;;;;;;;22.20;49.30;;;;;;478277;249;1088;-73
2022/08/15 01:44:26;;;;;;;;;;;22.20;49.20;;;;;;484032;246;1082;-73
2022/08/15 01:46:27;;;;;;;;;;;22.30;49.20;;;;;;470270;253;1070;-73
2022/08/15 01:48:28;;;;;;;;;;;22.30;49.10;;;;;;469812;253;2148;-73
2022/08/15 01:50:30;;;;;;;;;;;22.30;49.00;;;;;;484011;246;1167;-73
2022/08/15 01:52:31;;;;;;;;;;;22.40;49.00;;;;;;470360;253;1193;-73
2022/08/15 01:54:33;;;;;;;;;;;22.40;49.00;;;;;;469821;253;1192;-73
2022/08/15 01:56:34;;;;;;;;;;;22.40;48.80;;;;;;478409;249;1159;-73
2022/08/15 01:58:36;;;;;;;;;;;22.40;48.90;;;;;;484162;246;1330;-73
2022/08/15 02:00:37;;;;;;;;;;;22.30;49.00;;;;;;470435;253;1185;-73
2022/08/15 02:02:38;;;;;;;;;;;22.40;49.10;;;;;;469727;253;1168;-73
2022/08/15 02:04:40;;;;;;;;;;;22.40;49.20;;;;;;478413;249;1198;-73
2022/08/15 02:06:41;;;;;;;;;;;22.40;49.00;;;;;;484033;246;1088;-73
2022/08/15 02:08:43;;;;;;;;;;;22.40;49.00;;;;;;470296;253;2144;-73
2022/08/15 02:10:44;;;;;;;;;;;22.30;49.20;;;;;;469871;253;1143;-73
2022/08/15 02:12:45;;;;;;;;;;;22.40;49.20;;;;;;484207;246;1162;-73
2022/08/15 02:14:47;;;;;;;;;;;22.40;49.00;;;;;;470307;254;1102;-73
2022/08/15 02:16:48;;;;;;;;;;;22.40;49.10;;;;;;469812;253;1105;-73
2022/08/15 02:18:49;;;;;;;;;;;22.30;49.20;;;;;;478375;249;1062;-73
2022/08/15 02:20:51;;;;;;;;;;;22.30;49.40;;;;;;484034;246;1111;-73
2022/08/15 02:22:52;;;;;;;;;;;22.30;49.40;;;;;;470253;253;1108;-73
2022/08/15 02:24:53;;;;;;;;;;;22.30;49.40;;;;;;469909;253;1075;-73
2022/08/15 02:26:55;;;;;;;;;;;22.20;49.60;;;;;;478326;249;1069;-73
2022/08/15 02:28:56;;;;;;;;;;;22.40;49.40;;;;;;484070;246;2160;-73
2022/08/15 02:30:57;;;;;;;;;;;22.30;49.30;;;;;;478176;249;1072;-73
2022/08/15 02:32:59;;;;;;;;;;;22.40;49.40;;;;;;484139;246;1073;-73
2022/08/15 02:35:00;;;;;;;;;;;22.30;49.40;;;;;;470264;253;1110;-73
2022/08/15 02:37:02;;;;;;;;;;;22.30;49.50;;;;;;469807;250;1253;-73
2022/08/15 02:39:03;;;;;;;;;;;22.30;49.50;;;;;;478435;249;1166;-73
2022/08/15 02:41:04;;;;;;;;;;;22.40;49.30;;;;;;484110;246;1085;-73
2022/08/15 02:43:07;;;;;;;;;;;22.40;49.10;;;;;;470281;253;1104;-73
2022/08/15 02:45:10;;;;;;;;;;;22.40;49.10;;;;;;469878;254;1381;-73
2022/08/15 02:47:09;;;;;;;;;;;22.40;49.30;;;;;;483895;246;1367;-73
2022/08/15 02:49:11;;;;;;;;;;;22.30;49.30;;;;;;470349;254;2154;-73
2022/08/15 02:51:13;;;;;;;;;;;22.30;49.40;;;;;;469822;253;1159;-73
2022/08/15 02:53:14;;;;;;;;;;;22.30;49.40;;;;;;485202;246;1187;-73
2022/08/15 02:55:15;;;;;;;;;;;22.30;49.30;;;;;;470439;253;1203;-73
2022/08/15 02:57:17;;;;;;;;;;;22.40;49.30;;;;;;469928;253;1098;-73
2022/08/15 02:59:18;;;;;;;;;;;22.40;49.20;;;;;;484132;246;1067;-73
2022/08/15 03:01:19;;;;;;;;;;;22.40;49.10;;;;;;470415;253;1201;-73
2022/08/15 03:03:21;;;;;;;;;;;22.40;49.00;;;;;;469861;253;1126;-73
2022/08/15 03:05:22;;;;;;;;;;;22.50;49.10;;;;;;478438;249;1395;-73
2022/08/15 03:07:23;;;;;;;;;;;22.40;49.10;;;;;;484171;246;1153;-73
2022/08/15 03:09:25;;;;;;;;;;;22.40;49.00;;;;;;478486;249;2213;-73
2022/08/15 03:11:26;;;;;;;;;;;22.40;48.90;;;;;;484201;246;1084;-73
2022/08/15 03:13:27;;;;;;;;;;;22.50;48.80;;;;;;470382;250;1063;-73
2022/08/15 03:15:30;;;;;;;;;;;22.50;48.70;;;;;;469833;253;1125;-73
2022/08/15 03:17:31;;;;;;;;;;;22.50;48.60;;;;;;484044;246;1045;-73
2022/08/15 03:19:32;;;;;;;;;;;22.40;48.60;;;;;;470281;254;1089;-73
2022/08/15 03:21:35;;;;;;;;;;;22.40;48.70;;;;;;469768;253;1185;-73
2022/08/15 03:23:35;;;;;;;;;;;22.30;48.80;;;;;;478302;249;1417;-73
2022/08/15 03:25:36;;;;;;;;;;;22.30;48.80;;;;;;484180;246;1095;-73
2022/08/15 03:27:40;;;;;;;;;;;22.30;48.90;;;;;;478395;249;1098;-73
2022/08/15 03:29:39;;;;;;;;;;;22.30;48.50;;;;;;484055;246;2188;-73
2022/08/15 03:31:40;;;;;;;;;;;22.20;48.70;;;;;;470317;253;1509;-73
2022/08/15 03:33:41;;;;;;;;;;;22.20;48.80;;;;;;469843;253;1218;-73
2022/08/15 03:35:43;;;;;;;;;;;22.20;48.80;;;;;;484135;246;1137;-73
2022/08/15 03:37:44;;;;;;;;;;;22.20;48.90;;;;;;470373;254;1129;-73
2022/08/15 03:39:46;;;;;;;;;;;22.10;49.00;;;;;;469895;253;1082;-73
2022/08/15 03:41:47;;;;;;;;;;;22.10;49.00;;;;;;483976;246;1155;-73
2022/08/15 03:43:48;;;;;;;;;;;22.20;48.90;;;;;;470276;253;1289;-73
2022/08/15 03:45:50;;;;;;;;;;;22.10;48.80;;;;;;469728;253;1297;-73
2022/08/15 03:47:51;;;;;;;;;;;22.10;48.90;;;;;;484053;246;1389;-73
2022/08/15 03:49:52;;;;;;;;;;;22.30;48.80;;;;;;470270;250;2187;-73
2022/08/15 03:51:54;;;;;;;;;;;22.20;48.80;;;;;;469653;253;1169;-73
2022/08/15 03:53:55;;;;;;;;;;;22.20;48.80;;;;;;478248;249;1137;-73
2022/08/15 03:55:57;;;;;;;;;;;22.20;48.90;;;;;;484053;246;1140;-73
2022/08/15 03:57:58;;;;;;;;;;;22.30;48.70;;;;;;470346;250;1163;-73
2022/08/15 03:59:59;;;;;;;;;;;22.30;48.50;;;;;;469924;253;1048;-73
2022/08/15 04:02:02;;;;;;;;;;;22.20;48.70;;;;;;478446;249;1111;-73
2022/08/15 04:04:02;;;;;;;;;;;22.20;48.90;;;;;;484086;246;1480;-73
2022/08/15 04:06:06;;;;;;;;;;;22.30;48.80;;;;;;470203;250;1177;-73
2022/08/15 04:08:06;;;;;;;;;;;22.30;48.70;;;;;;469850;254;1519;-73
2022/08/15 04:10:08;;;;;;;;;;;22.20;48.80;;;;;;484049;246;2195;-73
2022/08/15 04:12:08;;;;;;;;;;;22.30;48.80;;;;;;470257;253;1143;-73
2022/08/15 04:14:10;;;;;;;;;;;22.40;48.60;;;;;;469872;253;1177;-73
2022/08/15 04:16:11;;;;;;;;;;;22.40;48.40;;;;;;484034;246;1278;-73
2022/08/15 04:18:12;;;;;;;;;;;22.40;48.50;;;;;;470180;250;1134;-73
2022/08/15 04:20:14;;;;;;;;;;;22.40;48.50;;;;;;469849;253;1161;-73
2022/08/15 04:22:15;;;;;;;;;;;22.40;48.20;;;;;;478296;249;1212;-73
2022/08/15 04:24:16;;;;;;;;;;;22.40;48.40;;;;;;484137;246;1175;-73
2022/08/15 04:26:18;;;;;;;;;;;22.30;48.70;;;;;;470349;253;1186;-73
2022/08/15 04:28:19;;;;;;;;;;;22.30;48.70;;;;;;469842;253;1169;-73
2022/08/15 04:30:20;;;;;;;;;;;22.30;48.80;;;;;;484026;246;2148;-73
2022/08/15 04:32:23;;;;;;;;;;;22.20;48.90;;;;;;470208;254;1148;-73
2022/08/15 04:34:25;;;;;;;;;;;22.20;48.90;;;;;;469712;254;1527;-73
2022/08/15 04:36:25;;;;;;;;;;;22.10;49.10;;;;;;483968;246;1411;-73
2022/08/15 04:38:26;;;;;;;;;;;22.20;49.10;;;;;;470303;253;1238;-73
2022/08/15 04:40:28;;;;;;;;;;;22.20;49.10;;;;;;469851;253;1195;-73
2022/08/15 04:42:29;;;;;;;;;;;22.20;49.10;;;;;;484216;246;1429;-73
2022/08/15 04:44:30;;;;;;;;;;;22.20;49.10;;;;;;470311;250;1128;-73
2022/08/15 04:46:31;;;;;;;;;;;22.20;49.20;;;;;;469901;253;1156;-73
2022/08/15 04:48:33;;;;;;;;;;;22.10;49.10;;;;;;478359;246;1105;-73
2022/08/15 04:50:34;;;;;;;;;;;22.10;49.20;;;;;;484109;246;2175;-73
2022/08/15 04:52:36;;;;;;;;;;;22.10;49.10;;;;;;470378;253;1135;-73
2022/08/15 04:54:38;;;;;;;;;;;22.20;49.00;;;;;;469965;253;1092;-73
2022/08/15 04:56:38;;;;;;;;;;;22.20;49.00;;;;;;483879;246;1481;-73
2022/08/15 04:58:40;;;;;;;;;;;22.20;48.90;;;;;;470338;254;1040;-73
2022/08/15 05:00:41;;;;;;;;;;;22.20;48.70;;;;;;469844;253;1067;-73
2022/08/15 05:02:42;;;;;;;;;;;22.20;48.70;;;;;;478354;249;1039;-73
2022/08/15 05:04:44;;;;;;;;;;;22.20;48.80;;;;;;484278;246;986;-73
2022/08/15 05:06:45;;;;;;;;;;;22.10;48.90;;;;;;470409;254;1468;-73
2022/08/15 05:08:46;;;;;;;;;;;22.10;49.00;;;;;;469898;253;1182;-74
2022/08/15 05:10:48;;;;;;;;;;;22.10;49.00;;;;;;484264;246;2156;-73
2022/08/15 05:12:49;;;;;;;;;;;22.00;49.00;;;;;;470333;250;1039;-73
2022/08/15 05:14:50;;;;;;;;;;;22.00;49.10;;;;;;469877;253;1170;-73
2022/08/15 05:16:52;;;;;;;;;;;22.00;49.10;;;;;;478355;249;1050;-73
2022/08/15 05:18:53;;;;;;;;;;;22.00;49.10;;;;;;484127;246;1138;-73
2022/08/15 05:20:54;;;;;;;;;;;22.10;49.10;;;;;;470298;253;1040;-73
2022/08/15 05:22:56;;;;;;;;;;;22.10;49.00;;;;;;469795;253;1069;-73
2022/08/15 05:24:57;;;;;;;;;;;22.10;49.10;;;;;;478393;249;1000;-73
2022/08/15 05:26:59;;;;;;;;;;;22.10;49.00;;;;;;484098;246;1062;-73
2022/08/15 05:29:00;;;;;;;;;;;22.20;48.90;;;;;;470324;253;1076;-73
2022/08/15 05:31:01;;;;;;;;;;;22.10;48.90;;;;;;469802;253;2181;-73
2022/08/15 05:33:03;;;;;;;;;;;22.20;49.00;;;;;;478319;249;1023;-73
2022/08/15 05:35:04;;;;;;;;;;;22.10;49.10;;;;;;484263;246;982;-73
2022/08/15 05:37:05;;;;;;;;;;;22.20;49.00;;;;;;470371;253;1040;-73
2022/08/15 05:39:07;;;;;;;;;;;22.30;48.80;;;;;;469888;253;1072;-73
2022/08/15 05:41:08;;;;;;;;;;;22.30;48.70;;;;;;484114;246;1171;-73
2022/08/15 05:43:11;;;;;;;;;;;22.30;48.70;;;;;;470322;253;1064;-73
2022/08/15 05:45:12;;;;;;;;;;;22.30;48.80;;;;;;469962;254;1349;-73
2022/08/15 05:47:12;;;;;;;;;;;22.40;48.90;;;;;;484136;246;1397;-73
2022/08/15 05:49:13;;;;;;;;;;;22.40;48.70;;;;;;470312;254;1080;-73
2022/08/15 05:51:15;;;;;;;;;;;22.40;48.70;;;;;;469888;253;2199;-73
2022/08/15 05:53:16;;;;;;;;;;;22.40;48.80;;;;;;485099;246;1154;-73
2022/08/15 05:55:17;;;;;;;;;;;22.30;48.70;;;;;;470316;253;985;-73
2022/08/15 05:57:19;;;;;;;;;;;22.30;49.00;;;;;;469788;253;1166;-73
2022/08/15 05:59:20;;;;;;;;;;;22.40;49.00;;;;;;478339;249;1076;-73
2022/08/15 06:01:22;;;;;;;;;;;22.40;48.80;;;;;;484089;246;1194;-73
2022/08/15 06:03:23;;;;;;;;;;;22.40;48.80;;;;;;470166;253;1054;-73
2022/08/15 06:05:24;;;;;;;;;;;22.40;48.80;;;;;;469777;253;1036;-73
2022/08/15 06:07:26;;;;;;;;;;;22.40;48.90;;;;;;478348;246;1200;-73
2022/08/15 06:09:27;;;;;;;;;;;22.40;48.90;;;;;;484125;246;1097;-73
2022/08/15 06:11:29;;;;;;;;;;;22.40;49.00;;;;;;470256;253;2214;-73
2022/08/15 06:13:30;;;;;;;;;;;22.40;49.00;;;;;;469829;253;1293;-73
2022/08/15 06:15:31;;;;;;;;;;;22.30;49.10;;;;;;478363;249;1109;-73
2022/08/15 06:17:32;;;;;;;;;;;22.30;49.00;;;;;;484015;246;1052;-73
2022/08/15 06:19:34;;;;;;;;;;;22.30;49.20;;;;;;470344;253;1129;-73
2022/08/15 06:21:37;;;;;;;;;;;22.30;49.20;;;;;;469832;253;1204;-73
2022/08/15 06:23:36;;;;;;;;;;;22.30;49.10;;;;;;484072;246;1414;-73
2022/08/15 06:25:38;;;;;;;;;;;22.30;49.00;;;;;;470315;253;1192;-73
2022/08/15 06:27:39;;;;;;;;;;;22.30;48.90;;;;;;469842;253;1106;-73
2022/08/15 06:29:41;;;;;;;;;;;22.40;48.60;;;;;;484165;246;1107;-73
2022/08/15 06:31:42;;;;;;;;;;;22.40;48.60;;;;;;470318;254;2199;-73
2022/08/15 06:33:43;;;;;;;;;;;22.30;48.70;;;;;;469852;253;1532;-73
2022/08/15 06:35:44;;;;;;;;;;;22.20;48.80;;;;;;478332;249;1236;-73
2022/08/15 06:37:46;;;;;;;;;;;22.20;48.90;;;;;;484152;246;1212;-73
2022/08/15 06:39:47;;;;;;;;;;;22.20;49.00;;;;;;470412;253;1132;-73
2022/08/15 06:41:50;;;;;;;;;;;22.20;48.90;;;;;;469732;253;1204;-73
2022/08/15 06:43:50;;;;;;;;;;;22.20;48.90;;;;;;478306;249;1552;-73
2022/08/15 06:45:51;;;;;;;;;;;22.20;48.90;;;;;;484127;246;1043;-73
2022/08/15 06:47:53;;;;;;;;;;;22.20;49.10;;;;;;470250;253;1160;-73
2022/08/15 06:49:54;;;;;;;;;;;22.20;49.20;;;;;;469831;253;1188;-73
2022/08/15 06:51:55;;;;;;;;;;;22.10;49.20;;;;;;484103;246;2176;-73
2022/08/15 06:53:57;;;;;;;;;;;22.10;49.40;;;;;;470209;253;1167;-73
2022/08/15 06:55:58;;;;;;;;;;;22.20;49.40;;;;;;469968;253;1161;-73
2022/08/15 06:57:59;;;;;;;;;;;22.10;49.40;;;;;;484087;246;1145;-73
2022/08/15 07:00:01;;;;;;;;;;;22.20;49.30;;;;;;470317;253;1171;-73
2022/08/15 07:02:02;;;;;;;;;;;22.20;49.30;;;;;;469807;253;1227;-73
2022/08/15 07:04:03;;;;;;;;;;;22.20;49.30;;;;;;484088;246;1140;-73
2022/08/15 07:06:05;;;;;;;;;;;22.30;49.30;;;;;;470380;254;1083;-73
2022/08/15 07:08:06;;;;;;;;;;;22.30;49.20;;;;;;469894;253;1132;-73
2022/08/15 07:10:07;;;;;;;;;;;22.30;49.30;;;;;;478354;249;1156;-73
2022/08/15 07:12:09;;;;;;;;;;;22.30;49.20;;;;;;484102;246;2200;-73
2022/08/15 07:14:10;;;;;;;;;;;22.30;49.40;;;;;;470428;253;1154;-73
2022/08/15 07:16:11;;;;;;;;;;;22.30;49.30;;;;;;469939;253;1112;-73
2022/08/15 07:18:13;;;;;;;;;;;22.40;49.30;;;;;;484169;246;1097;-73
2022/08/15 07:20:14;;;;;;;;;;;22.40;49.20;;;;;;470382;250;1500;-73
2022/08/15 07:22:15;;;;;;;;;;;22.40;49.20;;;;;;469827;253;1079;-73
2022/08/15 07:24:17;;;;;;;;;;;22.40;49.20;;;;;;478447;249;1221;-73
2022/08/15 07:26:18;;;;;;;;;;;22.40;49.20;;;;;;484156;246;1171;-73
2022/08/15 07:28:19;;;;;;;;;;;22.40;49.20;;;;;;470317;253;1272;-73
2022/08/15 07:30:21;;;;;;;;;;;22.50;49.10;;;;;;469737;253;1158;-73
2022/08/15 07:32:22;;;;;;;;;;;22.40;49.10;;;;;;478341;249;2131;-73
2022/08/15 07:34:23;;;;;;;;;;;22.40;49.30;;;;;;484139;246;1118;-73
2022/08/15 07:36:25;;;;;;;;;;;22.30;49.40;;;;;;470193;253;1100;-73
2022/08/15 07:38:26;;;;;;;;;;;22.40;49.40;;;;;;469839;253;1225;-73
2022/08/15 07:40:27;;;;;;;;;;;22.40;49.40;;;;;;483991;246;1326;-73
2022/08/15 07:42:30;;;;;;;;;;;22.40;49.30;;;;;;470077;254;1276;-73
2022/08/15 07:44:31;;;;;;;;;;;22.40;49.30;;;;;;469711;254;1404;-73
2022/08/15 07:46:33;;;;;;;;;;;22.40;49.20;;;;;;478299;249;1292;-73
2022/08/15 07:48:34;;;;;;;;;;;22.50;49.10;;;;;;484153;246;1121;-73
2022/08/15 07:50:35;;;;;;;;;;;22.50;49.10;;;;;;470375;253;2152;-73
2022/08/15 07:52:37;;;;;;;;;;;22.50;49.10;;;;;;469842;253;1098;-73
2022/08/15 07:54:38;;;;;;;;;;;22.50;49.10;;;;;;483967;246;1487;-73
2022/08/15 07:56:39;;;;;;;;;;;22.50;49.00;;;;;;470236;250;1168;-73
2022/08/15 07:58:41;;;;;;;;;;;22.50;49.10;;;;;;469741;253;1169;-73
2022/08/15 08:00:42;;;;;;;;;;;22.40;49.10;;;;;;484054;246;1154;-73
2022/08/15 08:02:43;;;;;;;;;;;22.40;49.20;;;;;;470265;254;1145;-73
2022/08/15 08:04:44;;;;;;;;;;;22.40;49.20;;;;;;469777;253;1130;-73
2022/08/15 08:06:46;;;;;;;;;;;22.40;49.40;;;;;;478166;249;1398;-73
2022/08/15 08:08:47;;;;;;;;;;;22.40;49.40;;;;;;484063;246;1166;-73
2022/08/15 08:10:48;;;;;;;;;;;22.40;49.40;;;;;;470250;253;2159;-73
2022/08/15 08:12:52;;;;;;;;;;;22.40;49.40;;;;;;469895;253;1037;-73
2022/08/15 08:15:02;;;;;;;;;;;22.40;48.50;;;;;;502626;233;1241;-74
2022/08/15 08:16:58;;;;;;;;;;;22.50;49.30;;;;;;491416;242;1399;-74
2022/08/15 08:18:59;;;;;;;;;;;22.50;49.30;;;;;;491692;240;1043;-74
2022/08/15 08:21:01;;;;;;;;;;;22.50;49.30;;;;;;491658;240;1168;-74
2022/08/15 08:23:03;;;;;;;;;;;22.40;49.30;;;;;;491682;240;1444;-74
2022/08/15 08:25:04;;;;;;;;;;;22.50;49.40;;;;;;491794;240;1339;-74
2022/08/15 08:27:05;;;;;;;;;;;22.50;49.40;;;;;;491680;240;1421;-74
2022/08/15 08:29:06;;;;;;;;;;;22.60;49.20;;;;;;491794;240;1115;-74
2022/08/15 08:31:07;;;;;;;;;;;22.60;49.10;;;;;;491650;240;1110;-74
2022/08/15 08:33:09;;;;;;;;;;;22.60;49.10;;;;;;491770;240;2172;-74
2022/08/15 08:35:10;;;;;;;;;;;22.60;49.10;;;;;;491792;240;1080;-74
2022/08/15 08:37:12;;;;;;;;;;;22.50;49.30;;;;;;491634;240;1126;-74
2022/08/15 08:39:13;;;;;;;;;;;22.50;49.40;;;;;;491660;240;1047;-74
2022/08/15 08:41:29;;;;;;;;;;;22.40;49.50;;;;;;491676;240;1119;-74
2022/08/15 08:43:28;;;;;;;;;;;22.50;49.50;;;;;;491644;240;1281;-74
2022/08/15 08:45:29;;;;;;;;;;;22.50;49.30;;;;;;491732;240;1065;-74
2022/08/15 08:47:31;;;;;;;;;;;22.50;49.20;;;;;;491641;240;1163;-74
2022/08/15 08:49:32;;;;;;;;;;;22.60;49.20;;;;;;491773;240;1503;-74
2022/08/15 08:51:34;;;;;;;;;;;22.40;49.20;;;;;;491788;240;1136;-74
2022/08/15 08:53:36;;;;;;;;;;;22.50;49.20;;;;;;491745;240;2160;-74
2022/08/15 08:55:38;;;;;;;;;;;22.60;49.00;;;;;;491726;240;1374;-74
2022/08/15 08:57:37;;;;;;;;;;;22.50;49.00;;;;;;491749;240;1389;-74
2022/08/15 08:59:39;;;;;;;;;;;22.50;49.20;;;;;;491679;240;1097;-74
2022/08/15 09:01:40;;;;;;;;;;;22.50;49.30;;;;;;491625;240;1390;-74
2022/08/15 09:03:41;;;;;;;;;;;22.50;49.20;;;;;;491682;240;1102;-74
2022/08/15 09:05:44;;;;;;;;;;;22.50;49.10;;;;;;491733;240;1104;-74
2022/08/15 09:07:44;;;;;;;;;;;22.50;49.10;;;;;;491815;240;1499;-74
2022/08/15 09:09:45;;;;;;;;;;;22.50;49.10;;;;;;491677;240;1102;-74
2022/08/15 09:11:47;;;;;;;;;;;22.50;49.10;;;;;;491623;240;1165;-74
2022/08/15 09:13:49;;;;;;;;;;;22.50;49.10;;;;;;491668;240;2191;-74
2022/08/15 09:15:49;;;;;;;;;;;22.50;49.10;;;;;;491684;240;1424;-74
2022/08/15 09:17:51;;;;;;;;;;;22.50;49.10;;;;;;491687;240;1184;-74
2022/08/15 09:19:52;;;;;;;;;;;22.50;49.20;;;;;;491788;240;1073;-74
2022/08/15 09:21:54;;;;;;;;;;;22.50;49.20;;;;;;491644;240;1186;-74
2022/08/15 09:23:56;;;;;;;;;;;22.60;49.10;;;;;;491688;240;1141;-74
2022/08/15 09:25:56;;;;;;;;;;;22.60;49.10;;;;;;491582;240;1428;-74
2022/08/15 09:27:58;;;;;;;;;;;22.60;49.00;;;;;;491657;240;1086;-74
2022/08/15 09:29:59;;;;;;;;;;;22.70;49.10;;;;;;491542;240;1153;-74
2022/08/15 09:32:00;;;;;;;;;;;22.60;49.10;;;;;;491554;240;1123;-74
2022/08/15 09:34:02;;;;;;;;;;;22.60;49.20;;;;;;491582;240;2215;-74
2022/08/15 09:36:03;;;;;;;;;;;22.60;49.20;;;;;;491556;240;1092;-74
2022/08/15 09:38:04;;;;;;;;;;;22.50;49.20;;;;;;491510;240;1063;-74
2022/08/15 09:40:06;;;;;;;;;;;22.50;49.30;;;;;;491579;240;1090;-74
2022/08/15 09:42:07;;;;;;;;;;;22.60;49.40;;;;;;491546;240;1181;-74
2022/08/15 09:44:09;;;;;;;;;;;22.50;49.40;;;;;;491554;240;1124;-74
2022/08/15 09:46:10;;;;;;;;;;;22.40;49.60;;;;;;491463;240;1063;-74
2022/08/15 09:48:11;;;;;;;;;;;22.40;49.70;;;;;;491574;240;1289;-74
2022/08/15 09:50:13;;;;;;;;;;;22.40;49.60;;;;;;491617;240;1089;-74
2022/08/15 09:52:14;;;;;;;;;;;22.40;49.50;;;;;;491511;240;1090;-74
2022/08/15 09:54:20;;;;;;;;;;;22.50;49.60;;;;;;491529;240;2180;-74
2022/08/15 09:56:17;;;;;;;;;;;22.50;49.60;;;;;;491585;240;1311;-74
2022/08/15 09:58:19;;;;;;;;;;;22.50;49.40;;;;;;491619;240;1181;-74
2022/08/15 10:00:20;;;;;;;;;;;22.50;49.60;;;;;;491515;240;1367;-74
2022/08/15 10:02:22;;;;;;;;;;;22.40;49.60;;;;;;491470;240;1114;-74
2022/08/15 10:04:23;;;;;;;;;;;22.40;49.70;;;;;;491569;240;1130;-74
2022/08/15 10:06:24;;;;;;;;;;;22.40;49.80;;;;;;491511;240;1177;-74
2022/08/15 10:08:26;;;;;;;;;;;22.40;49.80;;;;;;491601;240;1169;-74
2022/08/15 10:10:27;;;;;;;;;;;22.40;49.80;;;;;;491662;240;1180;-74
2022/08/15 10:12:28;;;;;;;;;;;22.40;49.70;;;;;;491550;240;1147;-74
2022/08/15 10:14:31;;;;;;;;;;;22.40;49.80;;;;;;491571;240;2175;-74
2022/08/15 10:16:32;;;;;;;;;;;22.40;49.80;;;;;;491632;240;1422;-74
2022/08/15 10:18:32;;;;;;;;;;;22.40;49.70;;;;;;491597;240;1418;-74
2022/08/15 10:20:34;;;;;;;;;;;22.40;49.70;;;;;;491569;240;1079;-74
2022/08/15 10:22:35;;;;;;;;;;;22.40;49.80;;;;;;491483;240;1120;-74
2022/08/15 10:24:38;;;;;;;;;;;22.40;49.70;;;;;;491497;240;1123;-74
2022/08/15 10:26:40;;;;;;;;;;;22.50;49.70;;;;;;491530;240;1320;-74
2022/08/15 10:28:40;;;;;;;;;;;22.50;49.50;;;;;;491623;240;1485;-74
2022/08/15 10:30:46;;;;;;;;;;;22.50;49.60;;;;;;491577;240;1219;-74
2022/08/15 10:32:43;;;;;;;;;;;22.50;49.70;;;;;;491639;242;1402;-74
2022/08/15 10:34:44;;;;;;;;;;;22.50;49.70;;;;;;491727;240;2140;-74
2022/08/15 10:36:48;;;;;;;;;;;22.40;49.70;;;;;;491647;240;1041;-74
2022/08/15 10:38:47;;;;;;;;;;;22.40;49.80;;;;;;491610;240;1425;-74
2022/08/15 10:40:48;;;;;;;;;;;22.30;50.00;;;;;;491613;240;1051;-74
2022/08/15 10:42:49;;;;;;;;;;;22.40;50.00;;;;;;491531;240;1084;-74
2022/08/15 10:44:51;;;;;;;;;;;22.40;49.90;;;;;;491610;240;1252;-74
2022/08/15 10:46:52;;;;;;;;;;;22.50;49.80;;;;;;491515;240;1146;-74
2022/08/15 10:48:53;;;;;;;;;;;22.60;49.70;;;;;;491546;240;1109;-74
2022/08/15 10:50:55;;;;;;;;;;;22.60;49.50;;;;;;491751;240;1085;-74
2022/08/15 10:52:56;;;;;;;;;;;22.70;49.40;;;;;;491623;240;1079;-74
2022/08/15 10:54:57;;;;;;;;;;;22.70;49.20;;;;;;491626;240;2191;-74
2022/08/15 10:56:59;;;;;;;;;;;22.70;49.10;;;;;;491618;240;1177;-74
2022/08/15 10:59:01;;;;;;;;;;;22.80;49.00;;;;;;491592;240;1106;-74
2022/08/15 11:01:06;;;;;;;;;;;22.80;48.80;;;;;;491510;240;1363;-74
2022/08/15 11:03:04;;;;;;;;;;;22.70;48.80;;;;;;491498;240;1452;-74
2022/08/15 11:05:05;;;;;;;;;;;22.70;49.00;;;;;;491417;240;1136;-74
2022/08/15 11:07:06;;;;;;;;;;;22.60;49.00;;;;;;491469;240;1255;-74
2022/08/15 11:09:08;;;;;;;;;;;22.70;49.00;;;;;;491520;240;1053;-74
2022/08/15 11:11:09;;;;;;;;;;;22.80;49.00;;;;;;491413;240;1095;-74
2022/08/15 11:13:10;;;;;;;;;;;22.80;48.80;;;;;;491558;240;1150;-74
2022/08/15 11:15:12;;;;;;;;;;;22.80;48.80;;;;;;491556;240;2188;-74
2022/08/15 11:17:13;;;;;;;;;;;22.80;48.80;;;;;;491528;240;1155;-74
2022/08/15 11:19:15;;;;;;;;;;;22.70;48.80;;;;;;491588;240;1152;-74
2022/08/15 11:21:16;;;;;;;;;;;22.80;49.00;;;;;;491538;240;1366;-74
2022/08/15 11:23:17;;;;;;;;;;;22.70;49.00;;;;;;491555;240;1199;-74
2022/08/15 11:25:19;;;;;;;;;;;22.80;49.10;;;;;;491609;240;1110;-74
2022/08/15 11:27:21;;;;;;;;;;;22.80;48.90;;;;;;491460;240;1447;-74
2022/08/15 11:29:21;;;;;;;;;;;22.90;48.90;;;;;;491553;240;1421;-74
2022/08/15 11:31:22;;;;;;;;;;;22.90;48.80;;;;;;491566;240;1210;-74
2022/08/15 11:33:24;;;;;;;;;;;22.90;48.80;;;;;;491547;240;1169;-74
2022/08/15 11:35:26;;;;;;;;;;;23.00;48.90;;;;;;491547;240;2208;-74
2022/08/15 11:37:27;;;;;;;;;;;22.90;48.80;;;;;;491502;240;1111;-74
2022/08/15 11:39:29;;;;;;;;;;;22.90;48.90;;;;;;491596;240;1079;-74
2022/08/15 11:41:30;;;;;;;;;;;22.90;48.90;;;;;;491411;240;1140;-74
2022/08/15 11:43:31;;;;;;;;;;;22.90;49.00;;;;;;491512;240;1085;-74
2022/08/15 11:45:33;;;;;;;;;;;22.80;49.10;;;;;;491503;240;1082;-74
2022/08/15 11:47:34;;;;;;;;;;;22.80;49.20;;;;;;491543;240;1208;-74
2022/08/15 11:49:35;;;;;;;;;;;22.80;49.20;;;;;;491664;240;1184;-74
2022/08/15 11:51:37;;;;;;;;;;;22.80;49.30;;;;;;491605;240;1185;-74
2022/08/15 11:53:38;;;;;;;;;;;22.80;49.30;;;;;;491492;240;1077;-74
2022/08/15 11:55:39;;;;;;;;;;;22.80;49.10;;;;;;491631;240;2199;-74
2022/08/15 11:57:42;;;;;;;;;;;22.80;49.20;;;;;;491683;240;1115;-74